Terminal Aerodrome Forecast
Issued by NWS Charleston, WV

Current Version | Previous Version | Text Only | Print | Product List | Glossary Off
Versions: 1 2 3 4 5 6 7 8 9 10 11 12 13 14 15 16 17 18 19 20 21 22 23 24 25

128
FTUS41 KRLX 250116 AAA
TAFCRW
TAF AMD
KCRW 250116Z 2501/2524 VRB03KT P6SM -SHRA SCT007 OVC025
     FM250300 00000KT 5SM BR OVC015
     FM250900 00000KT 2SM BR OVC007
     FM251400 VRB03KT P6SM -SHRA OVC007
     FM251900 31004KT P6SM -SHRA OVC015=

USA.gov is the U.S. government's official web portal to all federal, state and local government web resources and services.